createdAt,value
2018-07-27T00:00:13.649Z,2.73
2018-07-27T00:02:44.684Z,3.30
2018-07-27T00:05:14.940Z,3.40
2018-07-27T00:07:45.181Z,3.17
2018-07-27T00:10:18.406Z,3.40
2018-07-27T00:12:50.742Z,3.30
2018-07-27T00:15:29.252Z,3.40
2018-07-27T00:18:00.853Z,2.87
2018-07-27T00:20:32.202Z,2.90
2018-07-27T00:23:03.029Z,3.53
2018-07-27T00:25:33.774Z,3.60
2018-07-27T00:28:04.672Z,2.70
2018-07-27T00:30:35.108Z,3.10
2018-07-27T00:33:05.299Z,3.53
2018-07-27T00:35:35.521Z,2.77
2018-07-27T00:38:05.774Z,3.17
2018-07-27T00:40:36.226Z,2.70
2018-07-27T00:43:06.829Z,3.33
2018-07-27T00:45:37.127Z,3.20
2018-07-27T00:48:07.348Z,2.80
2018-07-27T00:50:37.778Z,3.50
2018-07-27T00:53:08.000Z,3.77
2018-07-27T00:55:39.498Z,3.30
2018-07-27T00:58:10.018Z,3.30
2018-07-27T01:00:40.621Z,3.70
2018-07-27T01:03:11.634Z,3.23
2018-07-27T01:05:43.806Z,3.90
2018-07-27T01:08:14.046Z,3.47
2018-07-27T01:10:44.269Z,2.90
2018-07-27T01:13:14.713Z,3.07
2018-07-27T01:15:44.956Z,3.27
2018-07-27T01:18:15.201Z,3.27
2018-07-27T01:20:45.414Z,3.00
2018-07-27T01:23:15.606Z,3.30
2018-07-27T01:25:46.059Z,3.20
2018-07-27T01:28:16.527Z,3.37
2018-07-27T01:30:46.953Z,3.40
2018-07-27T01:33:17.121Z,3.30
2018-07-27T01:35:47.291Z,4.20
2018-07-27T01:38:17.431Z,3.10
2018-07-27T01:40:47.733Z,3.40
2018-07-27T01:43:17.490Z,3.30
2018-07-27T01:45:47.822Z,3.10
2018-07-27T01:48:18.112Z,2.90
2018-07-27T01:50:48.762Z,3.30
2018-07-27T01:53:19.809Z,2.87
2018-07-27T01:55:50.737Z,3.57
2018-07-27T01:58:21.743Z,3.43
2018-07-27T02:00:52.555Z,3.30
2018-07-27T02:03:23.241Z,3.97
2018-07-27T02:05:53.665Z,3.37
2018-07-27T02:08:24.524Z,3.00
2018-07-27T02:10:54.721Z,3.00
2018-07-27T02:13:25.059Z,3.20
2018-07-27T02:15:55.253Z,3.97
2018-07-27T02:18:25.038Z,3.53
2018-07-27T02:20:55.321Z,4.30
2018-07-27T02:23:25.046Z,3.07
2018-07-27T02:25:55.484Z,3.00
2018-07-27T02:28:25.748Z,3.00
2018-07-27T02:30:56.132Z,4.43
2018-07-27T02:33:26.502Z,4.00
2018-07-27T02:35:57.241Z,3.50
2018-07-27T02:38:27.588Z,3.77
2018-07-27T02:40:58.169Z,3.30
2018-07-27T02:43:28.046Z,3.20
2018-07-27T02:45:58.350Z,4.70
2018-07-27T02:48:28.065Z,3.23
2018-07-27T02:50:59.028Z,3.30
2018-07-27T02:53:30.020Z,3.60
2018-07-27T02:56:00.566Z,3.70
2018-07-27T02:58:31.214Z,3.40
2018-07-27T03:01:02.243Z,4.10
2018-07-27T03:03:33.581Z,3.90
2018-07-27T03:06:04.088Z,3.60
2018-07-27T03:08:34.272Z,3.40
2018-07-27T03:11:06.991Z,3.60
2018-07-27T03:13:37.272Z,3.87
2018-07-27T03:16:07.682Z,4.27
2018-07-27T03:18:37.920Z,4.43
2018-07-27T03:21:08.274Z,3.77
2018-07-27T03:23:38.483Z,4.00
2018-07-27T03:26:08.665Z,3.30
2018-07-27T03:28:38.967Z,4.00
2018-07-27T03:31:09.398Z,4.00
2018-07-27T03:33:39.593Z,4.03
2018-07-27T03:36:09.693Z,4.73
2018-07-27T03:38:41.519Z,3.90
2018-07-27T03:41:13.430Z,4.10
2018-07-27T03:43:44.860Z,4.00
2018-07-27T03:46:16.257Z,4.27
2018-07-27T03:48:46.429Z,3.93
2018-07-27T03:51:17.529Z,4.20
2018-07-27T03:53:47.689Z,3.40
2018-07-27T03:56:17.813Z,4.07
2018-07-27T03:58:48.359Z,4.20
2018-07-27T04:01:18.513Z,4.80
2018-07-27T04:03:48.826Z,3.37
2018-07-27T04:06:18.989Z,4.00
2018-07-27T04:08:49.109Z,4.13
2018-07-27T04:11:19.231Z,3.87
2018-07-27T04:13:49.395Z,4.30
2018-07-27T04:16:19.488Z,4.10
2018-07-27T04:18:49.704Z,4.00
2018-07-27T04:21:19.862Z,4.20
2018-07-27T04:23:50.169Z,4.53
2018-07-27T04:26:20.687Z,4.20
2018-07-27T04:28:50.892Z,4.03
2018-07-27T04:31:21.166Z,3.97
2018-07-27T04:33:51.413Z,4.37
2018-07-27T04:36:21.504Z,4.43
2018-07-27T04:38:51.758Z,4.90
2018-07-27T04:41:21.984Z,4.10
2018-07-27T04:43:52.350Z,4.87
2018-07-27T04:46:22.626Z,4.93
2018-07-27T04:48:52.831Z,4.63
2018-07-27T04:51:22.980Z,4.27
2018-07-27T04:53:53.176Z,4.00
2018-07-27T04:56:23.466Z,4.80
2018-07-27T04:58:53.791Z,4.70
2018-07-27T05:01:23.950Z,4.97
2018-07-27T05:03:54.356Z,4.80
2018-07-27T05:06:24.561Z,5.20
2018-07-27T05:08:59.931Z,6.23
2018-07-27T05:11:30.250Z,5.07
2018-07-27T05:14:00.501Z,4.63
2018-07-27T05:16:30.613Z,4.73
2018-07-27T05:19:00.799Z,5.00
2018-07-27T05:21:30.953Z,5.07
2018-07-27T05:24:01.296Z,6.10
2018-07-27T05:26:31.579Z,6.00
2018-07-27T05:29:01.704Z,4.90
2018-07-27T05:31:31.940Z,5.13
2018-07-27T05:34:02.250Z,5.47
2018-07-27T05:36:33.038Z,5.30
2018-07-27T05:39:03.498Z,5.13
2018-07-27T05:41:33.623Z,6.03
2018-07-27T05:44:03.882Z,5.40
2018-07-27T05:46:34.054Z,5.00
2018-07-27T05:49:05.762Z,5.73
2018-07-27T05:51:36.013Z,4.97
2018-07-27T05:54:06.393Z,5.80
2018-07-27T05:56:36.726Z,5.10
2018-07-27T05:59:07.069Z,5.60
2018-07-27T06:01:39.062Z,4.90
2018-07-27T06:04:09.318Z,4.87
2018-07-27T06:06:39.512Z,5.97
2018-07-27T06:09:11.622Z,5.03
2018-07-27T06:11:41.742Z,5.50
2018-07-27T06:14:12.012Z,5.47
2018-07-27T06:16:42.184Z,5.17
2018-07-27T06:19:12.368Z,5.10
2018-07-27T06:21:42.489Z,5.77
2018-07-27T06:24:12.768Z,4.50
2018-07-27T06:26:42.864Z,5.57
2018-07-27T06:29:13.093Z,5.60
2018-07-27T06:31:43.559Z,5.33
2018-07-27T06:34:13.810Z,5.33
2018-07-27T06:36:44.013Z,5.53
2018-07-27T06:39:14.200Z,5.70
2018-07-27T06:41:44.377Z,5.20
2018-07-27T06:44:14.720Z,5.20
2018-07-27T06:46:44.830Z,5.40
2018-07-27T06:49:15.077Z,5.60
2018-07-27T06:51:45.216Z,5.90
2018-07-27T06:54:15.567Z,5.80
2018-07-27T06:56:45.785Z,5.50
2018-07-27T06:59:15.963Z,5.00
2018-07-27T07:01:46.893Z,5.80
2018-07-27T07:04:17.102Z,6.13
2018-07-27T07:06:47.183Z,5.00
2018-07-27T07:09:17.582Z,5.47
2018-07-27T07:11:47.815Z,5.50
2018-07-27T07:14:17.964Z,5.63
2018-07-27T07:16:48.455Z,6.13
2018-07-27T07:19:18.680Z,4.97
2018-07-27T07:21:48.864Z,5.60
2018-07-27T07:24:19.016Z,5.53
2018-07-27T07:26:49.309Z,5.37
2018-07-27T07:29:19.502Z,6.07
2018-07-27T07:31:49.819Z,4.93
2018-07-27T07:34:19.975Z,5.63
2018-07-27T07:36:49.854Z,5.60
2018-07-27T07:39:20.001Z,6.47
2018-07-27T07:41:50.247Z,5.93
2018-07-27T07:44:20.376Z,4.67
2018-07-27T07:46:50.674Z,4.93
2018-07-27T07:49:20.842Z,4.93
2018-07-27T07:51:50.913Z,5.07
2018-07-27T07:54:21.102Z,4.90
2018-07-27T07:56:51.239Z,5.43
2018-07-27T07:59:21.429Z,5.53
2018-07-27T08:01:51.565Z,6.30
2018-07-27T08:04:21.759Z,5.20
2018-07-27T08:06:51.950Z,5.17
2018-07-27T08:09:22.168Z,5.20
2018-07-27T08:11:52.445Z,5.60
2018-07-27T08:14:22.642Z,5.53
2018-07-27T08:16:52.736Z,5.70
2018-07-27T08:19:22.904Z,6.70
2018-07-27T08:21:53.120Z,5.63
2018-07-27T08:24:23.477Z,4.80
2018-07-27T08:26:58.281Z,4.63
2018-07-27T08:29:30.756Z,5.03
2018-07-27T08:32:01.432Z,5.40
2018-07-27T08:34:31.817Z,5.10
2018-07-27T08:37:02.090Z,5.00
2018-07-27T08:39:34.133Z,5.60
2018-07-27T08:42:04.345Z,5.00
2018-07-27T08:44:35.922Z,4.83
2018-07-27T08:47:06.138Z,5.50
2018-07-27T08:49:36.437Z,4.27
2018-07-27T08:52:06.732Z,5.20
2018-07-27T08:54:36.969Z,5.50
2018-07-27T08:57:07.273Z,5.03
2018-07-27T08:59:37.715Z,5.03
2018-07-27T09:02:07.990Z,4.80
2018-07-27T09:04:38.221Z,5.10
2018-07-27T09:07:08.637Z,4.83
2018-07-27T09:09:39.025Z,4.97
2018-07-27T09:12:09.355Z,4.43
2018-07-27T09:14:39.594Z,4.20
2018-07-27T09:17:09.877Z,5.00
2018-07-27T09:19:40.348Z,4.80
2018-07-27T09:22:10.560Z,5.90
2018-07-27T09:24:40.915Z,5.70
2018-07-27T09:27:10.908Z,6.13
2018-07-27T09:29:41.042Z,5.43
2018-07-27T09:32:11.168Z,6.23
2018-07-27T09:34:41.361Z,5.20
2018-07-27T09:37:11.563Z,4.83
2018-07-27T09:39:41.889Z,5.27
2018-07-27T09:42:12.104Z,5.33
2018-07-27T09:44:42.289Z,4.50
2018-07-27T09:47:12.558Z,4.90
2018-07-27T09:49:42.716Z,4.53
2018-07-27T09:52:12.812Z,5.23
2018-07-27T09:54:43.015Z,4.97
2018-07-27T09:57:13.093Z,4.33
2018-07-27T09:59:50.085Z,4.57
2018-07-27T10:02:20.452Z,4.90
2018-07-27T10:04:50.619Z,4.20
2018-07-27T10:07:20.693Z,5.53
2018-07-27T10:09:51.029Z,4.43
2018-07-27T10:12:21.221Z,4.57
2018-07-27T10:14:51.386Z,4.73
2018-07-27T10:17:21.804Z,4.20
2018-07-27T10:19:52.188Z,4.07
2018-07-27T10:22:22.340Z,4.33
2018-07-27T10:24:52.491Z,4.77
2018-07-27T10:27:22.706Z,4.73
2018-07-27T10:29:52.927Z,3.60
2018-07-27T10:32:23.093Z,3.60
2018-07-27T10:34:53.276Z,3.13
2018-07-27T10:37:25.332Z,4.27
2018-07-27T10:39:55.479Z,4.30
2018-07-27T10:42:25.556Z,3.67
2018-07-27T10:45:00.472Z,3.40
2018-07-27T10:47:32.666Z,4.07
2018-07-27T10:50:02.828Z,3.73
2018-07-27T10:52:33.318Z,3.67
2018-07-27T10:55:03.550Z,4.00
2018-07-27T10:57:33.685Z,3.97
2018-07-27T11:00:04.012Z,4.03
2018-07-27T11:02:34.182Z,3.37
2018-07-27T11:05:04.404Z,3.60
2018-07-27T11:07:34.477Z,3.50
2018-07-27T11:10:04.809Z,3.93
2018-07-27T11:12:35.313Z,3.90
2018-07-27T11:15:06.233Z,3.83
2018-07-27T11:17:36.424Z,3.43
2018-07-27T11:20:07.946Z,2.93
2018-07-27T11:22:37.858Z,3.20
2018-07-27T11:25:08.265Z,3.03
2018-07-27T11:27:38.385Z,2.77
2018-07-27T11:30:08.637Z,2.87
2018-07-27T11:32:38.798Z,2.70
2018-07-27T11:35:08.999Z,3.20
2018-07-27T11:37:39.206Z,3.20
2018-07-27T11:40:09.436Z,3.30
2018-07-27T11:42:39.180Z,3.37
2018-07-27T11:45:09.338Z,4.30
2018-07-27T11:47:39.497Z,3.50
2018-07-27T11:50:09.711Z,3.77
2018-07-27T11:52:41.001Z,3.73
2018-07-27T11:55:11.340Z,3.20
2018-07-27T11:57:41.431Z,3.70
2018-07-27T12:00:11.799Z,2.97
2018-07-27T12:02:42.610Z,2.90
2018-07-27T12:05:12.926Z,2.87
2018-07-27T12:07:43.054Z,3.10
2018-07-27T12:10:13.312Z,3.30
2018-07-27T12:12:43.433Z,3.40
2018-07-27T12:15:13.917Z,3.70
2018-07-27T12:17:43.786Z,3.60
2018-07-27T12:20:16.273Z,3.57
2018-07-27T12:22:46.571Z,3.90
2018-07-27T12:25:16.768Z,3.03
2018-07-27T12:27:46.839Z,3.17
2018-07-27T12:30:17.021Z,3.43
2018-07-27T12:32:47.199Z,3.00
2018-07-27T12:35:17.540Z,3.03
2018-07-27T12:37:47.725Z,2.43
2018-07-27T12:40:17.942Z,2.70
2018-07-27T12:42:48.115Z,2.40
2018-07-27T12:45:18.257Z,2.90
2018-07-27T12:47:48.424Z,3.07
2018-07-27T12:50:18.593Z,3.10
2018-07-27T12:52:48.706Z,3.53
2018-07-27T12:55:18.904Z,2.80
2018-07-27T12:57:49.242Z,3.20
2018-07-27T13:00:19.429Z,2.93
2018-07-27T13:02:49.597Z,3.50
2018-07-27T13:05:19.851Z,3.60
2018-07-27T13:07:49.995Z,3.23
2018-07-27T13:10:20.135Z,2.70
2018-07-27T13:12:50.297Z,3.50
2018-07-27T13:15:20.602Z,4.00
2018-07-27T13:17:50.343Z,3.30
2018-07-27T13:20:20.566Z,3.07
2018-07-27T13:22:50.780Z,3.07
2018-07-27T13:25:21.014Z,3.50
2018-07-27T13:27:51.116Z,3.00
2018-07-27T13:30:21.310Z,3.10
2018-07-27T13:32:51.412Z,2.77
2018-07-27T13:35:21.699Z,2.83
2018-07-27T13:37:51.823Z,3.23
2018-07-27T13:40:21.972Z,2.90
2018-07-27T13:42:52.099Z,2.50
2018-07-27T13:45:22.252Z,2.40
2018-07-27T13:47:52.386Z,3.00
2018-07-27T13:50:22.544Z,3.00
2018-07-27T13:52:52.746Z,3.20
2018-07-27T13:55:22.873Z,3.03
2018-07-27T13:57:52.987Z,2.33
2018-07-27T14:00:23.304Z,2.97
2018-07-27T14:02:53.493Z,3.00
2018-07-27T14:05:23.662Z,3.30
2018-07-27T14:07:53.855Z,2.90
2018-07-27T14:10:24.064Z,3.37
2018-07-27T14:12:54.284Z,2.97
2018-07-27T14:15:24.483Z,2.97
2018-07-27T14:17:54.665Z,3.27
2018-07-27T14:20:24.861Z,3.00
2018-07-27T14:22:54.953Z,2.77
2018-07-27T14:25:25.178Z,2.40
2018-07-27T14:28:02.264Z,3.20
2018-07-27T14:30:32.437Z,2.90
2018-07-27T14:33:02.667Z,2.80
2018-07-27T14:35:32.882Z,3.07
2018-07-27T14:38:03.314Z,2.57
2018-07-27T14:40:33.714Z,2.80
2018-07-27T14:43:03.922Z,2.73
2018-07-27T14:45:34.071Z,2.53
2018-07-27T14:48:04.175Z,2.33
2018-07-27T14:50:34.471Z,3.10
2018-07-27T14:53:04.643Z,2.50
2018-07-27T14:55:34.795Z,3.07
2018-07-27T14:58:05.575Z,2.60
2018-07-27T15:00:35.709Z,2.50
2018-07-27T15:03:05.865Z,2.73
2018-07-27T15:05:36.072Z,3.13
2018-07-27T15:08:06.306Z,3.10
2018-07-27T15:10:36.437Z,2.53
2018-07-27T15:13:06.676Z,2.97
2018-07-27T15:15:36.884Z,3.00
2018-07-27T15:18:07.433Z,3.07
2018-07-27T15:20:37.583Z,2.87
2018-07-27T15:23:07.923Z,3.00
2018-07-27T15:25:38.518Z,2.63
2018-07-27T15:28:08.639Z,2.70
2018-07-27T15:30:38.839Z,3.00
2018-07-27T15:33:08.965Z,2.83
2018-07-27T15:35:39.218Z,2.83
2018-07-27T15:38:09.385Z,3.03
2018-07-27T15:40:39.550Z,3.10
2018-07-27T15:43:09.708Z,3.37
2018-07-27T15:45:39.850Z,3.00
2018-07-27T15:48:10.086Z,2.30
2018-07-27T15:50:40.224Z,2.90
2018-07-27T15:53:10.389Z,2.70
2018-07-27T15:55:40.697Z,2.50
2018-07-27T15:58:10.452Z,3.23
2018-07-27T16:00:40.728Z,2.80
2018-07-27T16:03:11.020Z,3.20
2018-07-27T16:05:41.145Z,2.90
2018-07-27T16:08:11.245Z,2.70
2018-07-27T16:10:41.414Z,2.83
2018-07-27T16:13:11.648Z,3.17
2018-07-27T16:15:41.805Z,3.10
2018-07-27T16:18:11.965Z,2.77
2018-07-27T16:20:42.155Z,3.00
2018-07-27T16:23:12.378Z,3.60
2018-07-27T16:25:42.569Z,2.77
2018-07-27T16:28:12.663Z,3.17
2018-07-27T16:30:43.012Z,2.70
2018-07-27T16:33:13.346Z,2.67
2018-07-27T16:35:43.476Z,3.40
2018-07-27T16:38:13.611Z,3.13
2018-07-27T16:40:43.824Z,3.20
2018-07-27T16:43:13.963Z,3.00
2018-07-27T16:45:44.182Z,3.40
2018-07-27T16:48:14.273Z,3.57
2018-07-27T16:50:44.425Z,2.90
2018-07-27T16:53:14.544Z,3.30
2018-07-27T16:55:44.244Z,2.90
2018-07-27T16:58:14.477Z,3.10
2018-07-27T17:00:44.589Z,2.63
2018-07-27T17:03:14.735Z,3.37
2018-07-27T17:05:44.922Z,3.53
2018-07-27T17:08:15.132Z,2.83
2018-07-27T17:10:45.414Z,3.40
2018-07-27T17:13:15.625Z,3.80
2018-07-27T17:15:45.851Z,3.87
2018-07-27T17:18:16.031Z,3.50
2018-07-27T17:20:46.251Z,3.10
2018-07-27T17:23:16.384Z,3.23
2018-07-27T17:25:46.588Z,3.47
2018-07-27T17:28:16.752Z,3.77
2018-07-27T17:30:46.982Z,3.50
2018-07-27T17:33:17.088Z,3.73
2018-07-27T17:35:47.256Z,3.83
2018-07-27T17:38:17.427Z,3.67
2018-07-27T17:40:47.605Z,3.87
2018-07-27T17:43:17.750Z,3.30
2018-07-27T17:45:47.911Z,3.77
2018-07-27T17:48:18.163Z,3.97
2018-07-27T17:50:48.460Z,3.13
2018-07-27T17:53:18.685Z,3.93
2018-07-27T17:55:48.952Z,3.70
2018-07-27T17:58:19.078Z,4.23
2018-07-27T18:00:49.303Z,4.20
2018-07-27T18:03:19.565Z,4.30
2018-07-27T18:05:49.883Z,3.97
2018-07-27T18:08:20.032Z,3.30
2018-07-27T18:10:50.241Z,5.17
2018-07-27T18:13:20.369Z,4.80
2018-07-27T18:15:50.582Z,4.30
2018-07-27T18:18:20.757Z,3.97
2018-07-27T18:20:50.985Z,4.60
2018-07-27T18:23:21.098Z,5.20
2018-07-27T18:25:51.450Z,5.80
2018-07-27T18:28:21.612Z,4.50
2018-07-27T18:30:51.738Z,4.73
2018-07-27T18:33:21.905Z,4.90
2018-07-27T18:35:52.089Z,5.07
2018-07-27T18:38:22.342Z,4.67
2018-07-27T18:40:52.569Z,4.77
2018-07-27T18:43:22.769Z,4.93
2018-07-27T18:45:52.924Z,5.87
2018-07-27T18:48:23.040Z,4.20
2018-07-27T18:50:53.280Z,4.37
2018-07-27T18:53:23.530Z,4.80
2018-07-27T18:55:53.710Z,5.57
2018-07-27T18:58:24.290Z,5.00
2018-07-27T19:00:54.447Z,5.00
2018-07-27T19:03:24.729Z,5.10
2018-07-27T19:05:55.043Z,5.20
2018-07-27T19:08:25.342Z,5.80
2018-07-27T19:10:56.083Z,6.30
2018-07-27T19:13:26.376Z,6.33
2018-07-27T19:15:56.788Z,6.40
2018-07-27T19:18:26.900Z,6.63
2018-07-27T19:20:57.221Z,5.90
2018-07-27T19:23:28.186Z,6.90
2018-07-27T19:26:01.702Z,6.07
2018-07-27T19:28:31.875Z,5.30
2018-07-27T19:31:02.361Z,5.70
2018-07-27T19:33:32.729Z,5.30
2018-07-27T19:36:02.943Z,5.93
2018-07-27T19:38:33.113Z,6.00
2018-07-27T19:41:03.903Z,6.10
2018-07-27T19:43:34.136Z,5.90
2018-07-27T19:46:04.430Z,5.30
2018-07-27T19:48:34.898Z,6.57
2018-07-27T19:51:05.114Z,7.10
2018-07-27T19:53:35.246Z,6.20
2018-07-27T19:56:06.619Z,6.27
2018-07-27T19:58:36.763Z,5.80
2018-07-27T20:01:07.012Z,6.00
2018-07-27T20:03:37.045Z,6.30
2018-07-27T20:06:07.509Z,6.20
2018-07-27T20:08:37.681Z,6.47
2018-07-27T20:11:08.035Z,7.43
2018-07-27T20:13:38.166Z,7.03
2018-07-27T20:16:07.924Z,6.03
2018-07-27T20:18:38.022Z,7.10
2018-07-27T20:21:08.260Z,6.23
2018-07-27T20:23:38.377Z,6.40
2018-07-27T20:26:08.742Z,6.20
2018-07-27T20:28:39.080Z,7.50
2018-07-27T20:31:09.205Z,6.30
2018-07-27T20:33:39.440Z,7.00
2018-07-27T20:36:09.635Z,5.93
2018-07-27T20:38:39.888Z,6.10
2018-07-27T20:41:10.743Z,6.30
2018-07-27T20:43:40.908Z,6.23
2018-07-27T20:46:14.226Z,5.50
2018-07-27T20:48:44.379Z,6.63
2018-07-27T20:51:14.614Z,6.00
2018-07-27T20:53:44.847Z,6.20
2018-07-27T20:56:15.076Z,6.20
2018-07-27T20:58:45.218Z,6.40
2018-07-27T21:01:15.384Z,6.07
2018-07-27T21:03:45.524Z,6.30
2018-07-27T21:06:15.628Z,6.90
2018-07-27T21:08:45.786Z,5.90
2018-07-27T21:11:15.959Z,5.97
2018-07-27T21:13:46.070Z,6.30
2018-07-27T21:16:16.247Z,6.80
2018-07-27T21:18:46.356Z,6.10
2018-07-27T21:21:16.509Z,6.80
2018-07-27T21:23:46.650Z,7.20
2018-07-27T21:26:16.853Z,5.90
2018-07-27T21:28:47.135Z,6.53
2018-07-27T21:31:17.345Z,7.00
2018-07-27T21:33:47.478Z,6.60
2018-07-27T21:36:17.758Z,6.03
2018-07-27T21:38:48.035Z,6.87
2018-07-27T21:41:18.348Z,7.00
2018-07-27T21:43:48.565Z,5.70
2018-07-27T21:46:18.732Z,6.00
2018-07-27T21:48:48.909Z,5.97
2018-07-27T21:51:19.186Z,6.80
2018-07-27T21:53:49.666Z,5.80
2018-07-27T21:56:19.803Z,6.40
2018-07-27T21:58:49.992Z,7.33
2018-07-27T22:01:20.386Z,6.23
2018-07-27T22:03:50.662Z,6.77
2018-07-27T22:06:20.904Z,6.47
2018-07-27T22:08:51.071Z,6.20
2018-07-27T22:11:21.553Z,6.50
2018-07-27T22:13:51.961Z,6.07
2018-07-27T22:16:22.151Z,6.67
2018-07-27T22:18:52.259Z,6.07
2018-07-27T22:21:23.560Z,7.17
2018-07-27T22:23:53.760Z,6.37
2018-07-27T22:26:24.147Z,6.03
2018-07-27T22:28:54.313Z,5.93
2018-07-27T22:31:24.464Z,6.40
2018-07-27T22:33:54.636Z,5.70
2018-07-27T22:36:24.872Z,6.20
2018-07-27T22:38:55.335Z,6.47
2018-07-27T22:41:25.822Z,6.30
2018-07-27T22:43:55.937Z,6.60
2018-07-27T22:46:26.428Z,6.27
2018-07-27T22:48:56.646Z,6.10
2018-07-27T22:51:27.388Z,6.70
2018-07-27T22:53:58.503Z,5.70
2018-07-27T22:56:29.102Z,6.60
2018-07-27T22:58:59.748Z,6.90
2018-07-27T23:01:30.487Z,5.97
2018-07-27T23:04:01.094Z,6.23
2018-07-27T23:06:31.696Z,6.50
2018-07-27T23:09:02.395Z,6.73
2018-07-27T23:11:32.603Z,6.60
2018-07-27T23:14:02.831Z,6.80
2018-07-27T23:16:33.026Z,6.00
2018-07-27T23:19:03.063Z,5.90
2018-07-27T23:21:33.249Z,6.63
2018-07-27T23:24:03.421Z,6.20
2018-07-27T23:26:33.593Z,5.87
2018-07-27T23:29:03.762Z,6.30
2018-07-27T23:31:33.904Z,6.00
2018-07-27T23:34:04.032Z,6.43
2018-07-27T23:36:34.212Z,6.63
2018-07-27T23:39:07.231Z,6.57
2018-07-27T23:41:37.664Z,6.00
2018-07-27T23:44:08.162Z,6.30
2018-07-27T23:46:38.915Z,6.63
2018-07-27T23:49:10.225Z,5.80
2018-07-27T23:51:40.683Z,6.77
2018-07-27T23:54:10.934Z,7.23
2018-07-27T23:56:41.099Z,6.83
2018-07-27T23:59:10.820Z,7.17
